sensor_id;sensor_type;location;lat;lon;timestamp;temperature;humidity
48454;DHT22;34261;55.678;12.464;2022-10-30T00:00:36;14.60;99.90
48454;DHT22;34261;55.678;12.464;2022-10-30T00:03:02;14.60;99.90
48454;DHT22;34261;55.678;12.464;2022-10-30T00:05:27;14.60;99.90
48454;DHT22;34261;55.678;12.464;2022-10-30T00:07:56;14.60;99.90
48454;DHT22;34261;55.678;12.464;2022-10-30T00:10:22;14.60;99.90
48454;DHT22;34261;55.678;12.464;2022-10-30T00:12:48;14.60;99.90
48454;DHT22;34261;55.678;12.464;2022-10-30T00:15:13;14.60;99.90
48454;DHT22;34261;55.678;12.464;2022-10-30T00:17:39;14.70;99.90
48454;DHT22;34261;55.678;12.464;2022-10-30T00:20:05;14.70;99.90
48454;DHT22;34261;55.678;12.464;2022-10-30T00:22:31;14.60;99.90
48454;DHT22;34261;55.678;12.464;2022-10-30T00:24:56;14.60;99.90
48454;DHT22;34261;55.678;12.464;2022-10-30T00:27:22;14.60;99.90
48454;DHT22;34261;55.678;12.464;2022-10-30T00:29:47;14.60;99.90
48454;DHT22;34261;55.678;12.464;2022-10-30T00:32:13;14.60;99.90
48454;DHT22;34261;55.678;12.464;2022-10-30T00:34:38;14.70;99.90
48454;DHT22;34261;55.678;12.464;2022-10-30T00:37:03;14.70;99.90
48454;DHT22;34261;55.678;12.464;2022-10-30T00:39:29;14.70;99.90
48454;DHT22;34261;55.678;12.464;2022-10-30T00:41:54;14.70;99.90
48454;DHT22;34261;55.678;12.464;2022-10-30T00:47:05;14.70;99.90
48454;DHT22;34261;55.678;12.464;2022-10-30T00:49:35;14.70;99.90
48454;DHT22;34261;55.678;12.464;2022-10-30T00:52:02;14.70;99.90
48454;DHT22;34261;55.678;12.464;2022-10-30T00:54:29;14.70;99.90
48454;DHT22;34261;55.678;12.464;2022-10-30T00:56:56;14.70;99.90
48454;DHT22;34261;55.678;12.464;2022-10-30T00:59:22;14.70;99.90
48454;DHT22;34261;55.678;12.464;2022-10-30T01:01:48;14.60;99.90
48454;DHT22;34261;55.678;12.464;2022-10-30T01:04:15;14.60;99.90
48454;DHT22;34261;55.678;12.464;2022-10-30T01:06:41;14.70;99.90
48454;DHT22;34261;55.678;12.464;2022-10-30T01:09:07;14.60;99.90
48454;DHT22;34261;55.678;12.464;2022-10-30T01:11:32;14.60;99.90
48454;DHT22;34261;55.678;12.464;2022-10-30T01:14:00;14.70;99.90
48454;DHT22;34261;55.678;12.464;2022-10-30T01:16:40;14.60;99.90
48454;DHT22;34261;55.678;12.464;2022-10-30T01:19:16;14.60;99.90
48454;DHT22;34261;55.678;12.464;2022-10-30T01:24:30;14.60;99.90
48454;DHT22;34261;55.678;12.464;2022-10-30T01:29:34;14.70;99.90
48454;DHT22;34261;55.678;12.464;2022-10-30T01:34:54;14.60;99.90
48454;DHT22;34261;55.678;12.464;2022-10-30T01:38:05;14.50;99.90
48454;DHT22;34261;55.678;12.464;2022-10-30T01:40:12;14.50;99.90
48454;DHT22;34261;55.678;12.464;2022-10-30T01:42:42;14.50;99.90
48454;DHT22;34261;55.678;12.464;2022-10-30T01:45:14;14.50;99.90
48454;DHT22;34261;55.678;12.464;2022-10-30T01:47:55;14.50;99.90
48454;DHT22;34261;55.678;12.464;2022-10-30T02:01:07;14.50;99.90
48454;DHT22;34261;55.678;12.464;2022-10-30T02:03:32;14.50;99.90
48454;DHT22;34261;55.678;12.464;2022-10-30T02:05:58;14.60;99.90
48454;DHT22;34261;55.678;12.464;2022-10-30T02:08:23;14.50;99.90
48454;DHT22;34261;55.678;12.464;2022-10-30T02:10:50;14.50;99.90
48454;DHT22;34261;55.678;12.464;2022-10-30T02:13:16;14.50;99.90
48454;DHT22;34261;55.678;12.464;2022-10-30T02:15:42;14.50;99.90
48454;DHT22;34261;55.678;12.464;2022-10-30T02:18:08;14.50;99.90
48454;DHT22;34261;55.678;12.464;2022-10-30T02:20:33;14.60;99.90
48454;DHT22;34261;55.678;12.464;2022-10-30T02:22:59;14.60;99.90
48454;DHT22;34261;55.678;12.464;2022-10-30T02:25:24;14.50;99.90
48454;DHT22;34261;55.678;12.464;2022-10-30T02:27:50;14.50;99.90
48454;DHT22;34261;55.678;12.464;2022-10-30T02:30:15;14.50;99.90
48454;DHT22;34261;55.678;12.464;2022-10-30T02:32:41;14.50;99.90
48454;DHT22;34261;55.678;12.464;2022-10-30T02:35:06;14.50;99.90
48454;DHT22;34261;55.678;12.464;2022-10-30T02:37:32;14.50;99.90
48454;DHT22;34261;55.678;12.464;2022-10-30T02:40:00;14.40;99.90
48454;DHT22;34261;55.678;12.464;2022-10-30T02:42:25;14.50;99.90
48454;DHT22;34261;55.678;12.464;2022-10-30T02:44:51;14.50;99.90
48454;DHT22;34261;55.678;12.464;2022-10-30T02:47:16;14.40;99.90
48454;DHT22;34261;55.678;12.464;2022-10-30T02:49:42;14.40;99.90
48454;DHT22;34261;55.678;12.464;2022-10-30T02:52:07;14.40;99.90
48454;DHT22;34261;55.678;12.464;2022-10-30T02:54:33;14.40;99.90
48454;DHT22;34261;55.678;12.464;2022-10-30T02:56:59;14.40;99.90
48454;DHT22;34261;55.678;12.464;2022-10-30T02:59:24;14.40;99.90
48454;DHT22;34261;55.678;12.464;2022-10-30T03:01:50;14.50;99.90
48454;DHT22;34261;55.678;12.464;2022-10-30T03:04:15;14.50;99.90
48454;DHT22;34261;55.678;12.464;2022-10-30T03:06:41;14.50;99.90
48454;DHT22;34261;55.678;12.464;2022-10-30T03:09:06;14.50;99.90
48454;DHT22;34261;55.678;12.464;2022-10-30T03:11:32;14.50;99.90
48454;DHT22;34261;55.678;12.464;2022-10-30T03:13:58;14.40;99.90
48454;DHT22;34261;55.678;12.464;2022-10-30T03:16:24;14.50;99.90
48454;DHT22;34261;55.678;12.464;2022-10-30T03:18:50;14.40;99.90
48454;DHT22;34261;55.678;12.464;2022-10-30T03:21:17;14.40;99.90
48454;DHT22;34261;55.678;12.464;2022-10-30T03:23:42;14.40;99.90
48454;DHT22;34261;55.678;12.464;2022-10-30T03:26:08;14.30;99.90
48454;DHT22;34261;55.678;12.464;2022-10-30T03:28:34;14.30;99.90
48454;DHT22;34261;55.678;12.464;2022-10-30T03:31:00;14.30;99.90
48454;DHT22;34261;55.678;12.464;2022-10-30T03:33:26;14.20;99.90
48454;DHT22;34261;55.678;12.464;2022-10-30T03:35:51;14.20;99.90
48454;DHT22;34261;55.678;12.464;2022-10-30T03:38:17;14.20;99.90
48454;DHT22;34261;55.678;12.464;2022-10-30T03:40:42;14.20;99.90
48454;DHT22;34261;55.678;12.464;2022-10-30T03:43:08;14.20;99.90
48454;DHT22;34261;55.678;12.464;2022-10-30T03:45:35;14.20;99.90
48454;DHT22;34261;55.678;12.464;2022-10-30T03:48:01;14.20;99.90
48454;DHT22;34261;55.678;12.464;2022-10-30T03:50:26;14.20;99.90
48454;DHT22;34261;55.678;12.464;2022-10-30T03:52:53;14.10;99.90
48454;DHT22;34261;55.678;12.464;2022-10-30T03:55:18;14.10;99.90
48454;DHT22;34261;55.678;12.464;2022-10-30T03:57:44;14.00;99.90
48454;DHT22;34261;55.678;12.464;2022-10-30T04:00:09;14.00;99.90
48454;DHT22;34261;55.678;12.464;2022-10-30T04:02:35;14.00;99.90
48454;DHT22;34261;55.678;12.464;2022-10-30T04:05:00;14.00;99.90
48454;DHT22;34261;55.678;12.464;2022-10-30T04:07:26;14.00;99.90
48454;DHT22;34261;55.678;12.464;2022-10-30T04:09:51;13.90;99.90
48454;DHT22;34261;55.678;12.464;2022-10-30T04:12:17;13.90;99.90
48454;DHT22;34261;55.678;12.464;2022-10-30T04:14:42;13.90;99.90
48454;DHT22;34261;55.678;12.464;2022-10-30T04:17:08;13.90;99.90
48454;DHT22;34261;55.678;12.464;2022-10-30T04:19:33;13.90;99.90
48454;DHT22;34261;55.678;12.464;2022-10-30T04:21:59;13.90;99.90
48454;DHT22;34261;55.678;12.464;2022-10-30T04:24:24;13.90;99.90
48454;DHT22;34261;55.678;12.464;2022-10-30T04:26:50;13.90;99.90
48454;DHT22;34261;55.678;12.464;2022-10-30T04:29:15;13.80;99.90
48454;DHT22;34261;55.678;12.464;2022-10-30T04:31:41;13.90;99.90
48454;DHT22;34261;55.678;12.464;2022-10-30T04:34:06;13.90;99.90
48454;DHT22;34261;55.678;12.464;2022-10-30T04:36:32;13.80;99.90
48454;DHT22;34261;55.678;12.464;2022-10-30T04:38:58;13.90;99.90
48454;DHT22;34261;55.678;12.464;2022-10-30T04:41:24;13.90;99.90
48454;DHT22;34261;55.678;12.464;2022-10-30T04:43:50;13.80;99.90
48454;DHT22;34261;55.678;12.464;2022-10-30T04:46:16;13.80;99.90
48454;DHT22;34261;55.678;12.464;2022-10-30T04:48:42;13.80;99.90
48454;DHT22;34261;55.678;12.464;2022-10-30T04:51:08;13.80;99.90
48454;DHT22;34261;55.678;12.464;2022-10-30T04:53:36;13.80;99.90
48454;DHT22;34261;55.678;12.464;2022-10-30T04:56:01;13.80;99.90
48454;DHT22;34261;55.678;12.464;2022-10-30T04:58:27;13.80;99.90
48454;DHT22;34261;55.678;12.464;2022-10-30T05:00:52;13.80;99.90
48454;DHT22;34261;55.678;12.464;2022-10-30T05:03:19;13.90;99.90
48454;DHT22;34261;55.678;12.464;2022-10-30T05:05:45;13.90;99.90
48454;DHT22;34261;55.678;12.464;2022-10-30T05:08:12;13.90;99.90
48454;DHT22;34261;55.678;12.464;2022-10-30T05:10:38;13.80;99.90
48454;DHT22;34261;55.678;12.464;2022-10-30T05:13:04;13.80;99.90
48454;DHT22;34261;55.678;12.464;2022-10-30T05:15:29;13.80;99.90
48454;DHT22;34261;55.678;12.464;2022-10-30T05:17:55;13.80;99.90
48454;DHT22;34261;55.678;12.464;2022-10-30T05:20:20;13.90;99.90
48454;DHT22;34261;55.678;12.464;2022-10-30T05:22:52;13.80;99.90
48454;DHT22;34261;55.678;12.464;2022-10-30T05:25:17;13.80;99.90
48454;DHT22;34261;55.678;12.464;2022-10-30T07:55:29;14.90;99.90
48454;DHT22;34261;55.678;12.464;2022-10-30T07:57:55;15.00;99.90
48454;DHT22;34261;55.678;12.464;2022-10-30T08:00:20;14.90;99.90
48454;DHT22;34261;55.678;12.464;2022-10-30T08:02:49;15.00;99.90
48454;DHT22;34261;55.678;12.464;2022-10-30T08:05:15;15.00;99.90
48454;DHT22;34261;55.678;12.464;2022-10-30T08:07:41;15.00;99.90
48454;DHT22;34261;55.678;12.464;2022-10-30T08:10:08;15.00;99.90
48454;DHT22;34261;55.678;12.464;2022-10-30T08:12:33;15.00;99.90
48454;DHT22;34261;55.678;12.464;2022-10-30T08:15:00;15.00;99.90
48454;DHT22;34261;55.678;12.464;2022-10-30T08:17:25;15.00;99.90
48454;DHT22;34261;55.678;12.464;2022-10-30T08:19:57;15.10;99.90
48454;DHT22;34261;55.678;12.464;2022-10-30T08:22:23;15.10;99.90
48454;DHT22;34261;55.678;12.464;2022-10-30T08:24:49;15.10;99.90
48454;DHT22;34261;55.678;12.464;2022-10-30T08:27:14;15.10;99.90
48454;DHT22;34261;55.678;12.464;2022-10-30T08:29:40;15.20;99.90
48454;DHT22;34261;55.678;12.464;2022-10-30T08:32:06;15.20;99.90
48454;DHT22;34261;55.678;12.464;2022-10-30T08:34:31;15.10;99.90
48454;DHT22;34261;55.678;12.464;2022-10-30T08:36:58;15.10;99.90
48454;DHT22;34261;55.678;12.464;2022-10-30T08:39:24;15.20;99.90
48454;DHT22;34261;55.678;12.464;2022-10-30T08:41:50;15.20;99.90
48454;DHT22;34261;55.678;12.464;2022-10-30T08:44:15;15.20;99.90
48454;DHT22;34261;55.678;12.464;2022-10-30T08:46:41;15.30;99.90
48454;DHT22;34261;55.678;12.464;2022-10-30T08:49:06;15.30;99.90
48454;DHT22;34261;55.678;12.464;2022-10-30T08:51:32;15.40;99.90
48454;DHT22;34261;55.678;12.464;2022-10-30T08:53:58;15.40;99.90
48454;DHT22;34261;55.678;12.464;2022-10-30T08:56:24;15.50;99.90
48454;DHT22;34261;55.678;12.464;2022-10-30T08:58:49;15.50;99.90
48454;DHT22;34261;55.678;12.464;2022-10-30T09:01:15;15.60;99.90
48454;DHT22;34261;55.678;12.464;2022-10-30T09:03:40;15.70;99.90
48454;DHT22;34261;55.678;12.464;2022-10-30T09:06:08;15.70;99.90
48454;DHT22;34261;55.678;12.464;2022-10-30T09:08:34;15.80;99.90
48454;DHT22;34261;55.678;12.464;2022-10-30T09:10:59;15.80;99.90
48454;DHT22;34261;55.678;12.464;2022-10-30T09:13:25;15.90;99.90
48454;DHT22;34261;55.678;12.464;2022-10-30T09:15:50;16.00;99.90
48454;DHT22;34261;55.678;12.464;2022-10-30T09:18:16;16.00;99.90
48454;DHT22;34261;55.678;12.464;2022-10-30T09:20:41;16.00;99.90
48454;DHT22;34261;55.678;12.464;2022-10-30T09:23:07;16.10;99.90
48454;DHT22;34261;55.678;12.464;2022-10-30T09:25:33;16.20;99.90
48454;DHT22;34261;55.678;12.464;2022-10-30T09:27:58;16.30;99.90
48454;DHT22;34261;55.678;12.464;2022-10-30T09:30:24;16.40;99.90
48454;DHT22;34261;55.678;12.464;2022-10-30T09:32:56;16.40;99.90
48454;DHT22;34261;55.678;12.464;2022-10-30T09:35:22;16.40;99.90
48454;DHT22;34261;55.678;12.464;2022-10-30T09:37:48;16.60;99.90
48454;DHT22;34261;55.678;12.464;2022-10-30T09:40:18;16.60;99.90
48454;DHT22;34261;55.678;12.464;2022-10-30T09:42:46;16.70;99.90
48454;DHT22;34261;55.678;12.464;2022-10-30T09:45:28;16.90;99.90
48454;DHT22;34261;55.678;12.464;2022-10-30T09:50:57;17.00;99.90
48454;DHT22;34261;55.678;12.464;2022-10-30T09:56:17;17.30;99.90
48454;DHT22;34261;55.678;12.464;2022-10-30T09:59:07;17.50;99.90
48454;DHT22;34261;55.678;12.464;2022-10-30T10:01:39;17.60;99.90
48454;DHT22;34261;55.678;12.464;2022-10-30T10:06:42;17.80;99.90
48454;DHT22;34261;55.678;12.464;2022-10-30T10:09:14;17.80;99.90
48454;DHT22;34261;55.678;12.464;2022-10-30T10:11:42;17.90;99.90
48454;DHT22;34261;55.678;12.464;2022-10-30T10:14:23;18.00;99.90
48454;DHT22;34261;55.678;12.464;2022-10-30T10:16:53;18.10;99.90
48454;DHT22;34261;55.678;12.464;2022-10-30T10:19:37;18.30;99.90
48454;DHT22;34261;55.678;12.464;2022-10-30T10:22:05;18.30;99.90
48454;DHT22;34261;55.678;12.464;2022-10-30T10:24:37;18.30;99.90
48454;DHT22;34261;55.678;12.464;2022-10-30T10:34:56;18.50;99.90
48454;DHT22;34261;55.678;12.464;2022-10-30T10:42:41;18.40;99.90
48454;DHT22;34261;55.678;12.464;2022-10-30T10:50:30;18.70;99.90
48454;DHT22;34261;55.678;12.464;2022-10-30T10:53:02;18.70;99.90
48454;DHT22;34261;55.678;12.464;2022-10-30T10:55:32;18.70;99.90
48454;DHT22;34261;55.678;12.464;2022-10-30T10:57:58;18.70;99.90
48454;DHT22;34261;55.678;12.464;2022-10-30T11:00:28;18.80;99.90
48454;DHT22;34261;55.678;12.464;2022-10-30T11:02:59;18.90;99.90
48454;DHT22;34261;55.678;12.464;2022-10-30T11:05:47;19.00;99.90
48454;DHT22;34261;55.678;12.464;2022-10-30T11:08:25;19.20;99.90
48454;DHT22;34261;55.678;12.464;2022-10-30T11:10:55;19.10;99.90
48454;DHT22;34261;55.678;12.464;2022-10-30T11:13:22;18.90;99.90
48454;DHT22;34261;55.678;12.464;2022-10-30T11:15:54;18.90;99.90
48454;DHT22;34261;55.678;12.464;2022-10-30T11:18:22;18.80;99.90
48454;DHT22;34261;55.678;12.464;2022-10-30T11:23:33;18.50;99.90
48454;DHT22;34261;55.678;12.464;2022-10-30T11:25:59;18.40;99.90
48454;DHT22;34261;55.678;12.464;2022-10-30T11:28:35;18.70;99.90
48454;DHT22;34261;55.678;12.464;2022-10-30T11:31:23;18.80;99.90
48454;DHT22;34261;55.678;12.464;2022-10-30T11:33:49;18.90;99.90
48454;DHT22;34261;55.678;12.464;2022-10-30T11:36:16;19.00;99.90
48454;DHT22;34261;55.678;12.464;2022-10-30T11:38:42;18.90;99.90
48454;DHT22;34261;55.678;12.464;2022-10-30T11:41:08;19.00;99.90
48454;DHT22;34261;55.678;12.464;2022-10-30T11:43:37;19.10;99.90
48454;DHT22;34261;55.678;12.464;2022-10-30T11:46:03;19.00;99.90
48454;DHT22;34261;55.678;12.464;2022-10-30T11:48:33;19.00;99.90
48454;DHT22;34261;55.678;12.464;2022-10-30T11:51:02;19.10;99.90
48454;DHT22;34261;55.678;12.464;2022-10-30T11:55:59;19.20;99.90
48454;DHT22;34261;55.678;12.464;2022-10-30T11:58:31;19.30;99.90
48454;DHT22;34261;55.678;12.464;2022-10-30T12:01:02;19.20;99.90
48454;DHT22;34261;55.678;12.464;2022-10-30T12:03:32;19.20;99.90
48454;DHT22;34261;55.678;12.464;2022-10-30T12:06:09;19.20;99.90
48454;DHT22;34261;55.678;12.464;2022-10-30T12:08:35;19.30;99.90
48454;DHT22;34261;55.678;12.464;2022-10-30T12:11:01;19.40;99.90
48454;DHT22;34261;55.678;12.464;2022-10-30T12:13:34;19.60;99.90
48454;DHT22;34261;55.678;12.464;2022-10-30T12:18:32;19.60;99.90
48454;DHT22;34261;55.678;12.464;2022-10-30T12:20:59;19.70;99.90
48454;DHT22;34261;55.678;12.464;2022-10-30T12:23:26;19.80;99.90
48454;DHT22;34261;55.678;12.464;2022-10-30T12:25:57;19.80;99.90
48454;DHT22;34261;55.678;12.464;2022-10-30T12:28:29;19.70;99.90
48454;DHT22;34261;55.678;12.464;2022-10-30T12:36:44;19.10;99.90
48454;DHT22;34261;55.678;12.464;2022-10-30T19:47:54;15.50;99.90
48454;DHT22;34261;55.678;12.464;2022-10-30T19:50:27;15.40;99.90
48454;DHT22;34261;55.678;12.464;2022-10-30T19:52:54;15.40;99.90
48454;DHT22;34261;55.678;12.464;2022-10-30T19:55:20;15.40;99.90
48454;DHT22;34261;55.678;12.464;2022-10-30T19:57:46;15.40;99.90
48454;DHT22;34261;55.678;12.464;2022-10-30T20:00:13;15.40;99.90
48454;DHT22;34261;55.678;12.464;2022-10-30T20:02:39;15.40;99.90
48454;DHT22;34261;55.678;12.464;2022-10-30T20:05:04;15.40;99.90
48454;DHT22;34261;55.678;12.464;2022-10-30T20:07:30;15.40;99.90
48454;DHT22;34261;55.678;12.464;2022-10-30T20:09:55;15.40;99.90
48454;DHT22;34261;55.678;12.464;2022-10-30T20:12:21;15.40;99.90
48454;DHT22;34261;55.678;12.464;2022-10-30T20:14:46;15.30;99.90
48454;DHT22;34261;55.678;12.464;2022-10-30T20:17:12;15.40;99.90
48454;DHT22;34261;55.678;12.464;2022-10-30T20:19:39;15.40;99.90
48454;DHT22;34261;55.678;12.464;2022-10-30T20:22:05;15.40;99.90
48454;DHT22;34261;55.678;12.464;2022-10-30T20:24:30;15.40;99.90
48454;DHT22;34261;55.678;12.464;2022-10-30T20:26:55;15.40;99.90
48454;DHT22;34261;55.678;12.464;2022-10-30T20:29:21;15.40;99.90
48454;DHT22;34261;55.678;12.464;2022-10-30T20:31:48;15.50;99.90
48454;DHT22;34261;55.678;12.464;2022-10-30T20:34:14;15.50;99.90
48454;DHT22;34261;55.678;12.464;2022-10-30T20:36:39;15.50;99.90
48454;DHT22;34261;55.678;12.464;2022-10-30T20:39:05;15.50;99.90
48454;DHT22;34261;55.678;12.464;2022-10-30T20:41:31;15.50;99.90
48454;DHT22;34261;55.678;12.464;2022-10-30T20:43:56;15.50;99.90
48454;DHT22;34261;55.678;12.464;2022-10-30T20:46:22;15.50;99.90
48454;DHT22;34261;55.678;12.464;2022-10-30T20:48:47;15.50;99.90
48454;DHT22;34261;55.678;12.464;2022-10-30T20:51:13;15.50;99.90
48454;DHT22;34261;55.678;12.464;2022-10-30T20:53:38;15.50;99.90
48454;DHT22;34261;55.678;12.464;2022-10-30T20:56:04;15.50;99.90
48454;DHT22;34261;55.678;12.464;2022-10-30T20:58:30;15.50;99.90
48454;DHT22;34261;55.678;12.464;2022-10-30T21:00:56;15.50;99.90
48454;DHT22;34261;55.678;12.464;2022-10-30T21:03:22;15.50;99.90
48454;DHT22;34261;55.678;12.464;2022-10-30T21:05:53;15.50;99.90
48454;DHT22;34261;55.678;12.464;2022-10-30T21:08:18;15.50;99.90
48454;DHT22;34261;55.678;12.464;2022-10-30T21:10:44;15.50;99.90
48454;DHT22;34261;55.678;12.464;2022-10-30T21:13:09;15.50;99.90
48454;DHT22;34261;55.678;12.464;2022-10-30T21:15:38;15.50;99.90
48454;DHT22;34261;55.678;12.464;2022-10-30T21:18:04;15.50;99.90
48454;DHT22;34261;55.678;12.464;2022-10-30T21:20:29;15.50;99.90
48454;DHT22;34261;55.678;12.464;2022-10-30T21:22:55;15.50;99.90
48454;DHT22;34261;55.678;12.464;2022-10-30T21:25:20;15.50;99.90
48454;DHT22;34261;55.678;12.464;2022-10-30T21:27:46;15.50;99.90
48454;DHT22;34261;55.678;12.464;2022-10-30T21:30:12;15.50;99.90
48454;DHT22;34261;55.678;12.464;2022-10-30T21:32:37;15.50;99.90
48454;DHT22;34261;55.678;12.464;2022-10-30T21:35:03;15.50;99.90
48454;DHT22;34261;55.678;12.464;2022-10-30T21:37:32;15.60;99.90
48454;DHT22;34261;55.678;12.464;2022-10-30T21:39:58;15.60;99.90
48454;DHT22;34261;55.678;12.464;2022-10-30T21:42:24;15.60;99.90
48454;DHT22;34261;55.678;12.464;2022-10-30T21:44:49;15.60;99.90
48454;DHT22;34261;55.678;12.464;2022-10-30T21:47:15;15.60;99.90
48454;DHT22;34261;55.678;12.464;2022-10-30T21:49:40;15.60;99.90
48454;DHT22;34261;55.678;12.464;2022-10-30T21:52:06;15.60;99.90
48454;DHT22;34261;55.678;12.464;2022-10-30T21:54:31;15.60;99.90
48454;DHT22;34261;55.678;12.464;2022-10-30T21:56:58;15.70;99.90
48454;DHT22;34261;55.678;12.464;2022-10-30T21:59:23;15.70;99.90
48454;DHT22;34261;55.678;12.464;2022-10-30T22:01:49;15.70;99.90
48454;DHT22;34261;55.678;12.464;2022-10-30T22:04:14;15.70;99.90
48454;DHT22;34261;55.678;12.464;2022-10-30T22:06:41;15.70;99.90
48454;DHT22;34261;55.678;12.464;2022-10-30T22:09:07;15.70;99.90
48454;DHT22;34261;55.678;12.464;2022-10-30T22:11:33;15.70;99.90
48454;DHT22;34261;55.678;12.464;2022-10-30T22:14:00;15.70;99.90
48454;DHT22;34261;55.678;12.464;2022-10-30T22:16:26;15.70;99.90
48454;DHT22;34261;55.678;12.464;2022-10-30T22:18:52;15.70;99.90
48454;DHT22;34261;55.678;12.464;2022-10-30T22:21:18;15.70;99.90
48454;DHT22;34261;55.678;12.464;2022-10-30T22:23:43;15.80;99.90
48454;DHT22;34261;55.678;12.464;2022-10-30T22:26:11;15.70;99.90
48454;DHT22;34261;55.678;12.464;2022-10-30T22:28:36;15.80;99.90
48454;DHT22;34261;55.678;12.464;2022-10-30T22:31:03;15.80;99.90
48454;DHT22;34261;55.678;12.464;2022-10-30T22:33:28;15.80;99.90
48454;DHT22;34261;55.678;12.464;2022-10-30T22:35:54;15.80;99.90
48454;DHT22;34261;55.678;12.464;2022-10-30T22:38:19;15.80;99.90
48454;DHT22;34261;55.678;12.464;2022-10-30T22:40:45;15.90;99.90
48454;DHT22;34261;55.678;12.464;2022-10-30T22:43:10;15.80;99.90
48454;DHT22;34261;55.678;12.464;2022-10-30T22:45:36;15.80;99.90
48454;DHT22;34261;55.678;12.464;2022-10-30T22:48:01;15.80;99.90
48454;DHT22;34261;55.678;12.464;2022-10-30T22:50:27;15.80;99.90
48454;DHT22;34261;55.678;12.464;2022-10-30T22:52:52;15.90;99.90
48454;DHT22;34261;55.678;12.464;2022-10-30T22:55:20;15.80;99.90
48454;DHT22;34261;55.678;12.464;2022-10-30T22:57:46;15.90;99.90
48454;DHT22;34261;55.678;12.464;2022-10-30T23:00:16;15.90;99.90
48454;DHT22;34261;55.678;12.464;2022-10-30T23:02:48;15.90;99.90
48454;DHT22;34261;55.678;12.464;2022-10-30T23:05:13;15.90;99.90
48454;DHT22;34261;55.678;12.464;2022-10-30T23:07:39;15.90;99.90
48454;DHT22;34261;55.678;12.464;2022-10-30T23:10:04;15.90;99.90
48454;DHT22;34261;55.678;12.464;2022-10-30T23:12:30;16.00;99.90
48454;DHT22;34261;55.678;12.464;2022-10-30T23:14:55;15.90;99.90
48454;DHT22;34261;55.678;12.464;2022-10-30T23:17:21;15.90;99.90
48454;DHT22;34261;55.678;12.464;2022-10-30T23:19:46;15.90;99.90
48454;DHT22;34261;55.678;12.464;2022-10-30T23:22:12;16.00;99.90
48454;DHT22;34261;55.678;12.464;2022-10-30T23:24:37;15.90;99.90
48454;DHT22;34261;55.678;12.464;2022-10-30T23:27:03;15.90;99.90
48454;DHT22;34261;55.678;12.464;2022-10-30T23:29:28;16.00;99.90
48454;DHT22;34261;55.678;12.464;2022-10-30T23:31:54;16.00;99.90
48454;DHT22;34261;55.678;12.464;2022-10-30T23:34:19;16.00;99.90
48454;DHT22;34261;55.678;12.464;2022-10-30T23:36:45;16.00;99.90
48454;DHT22;34261;55.678;12.464;2022-10-30T23:39:14;16.00;99.90
48454;DHT22;34261;55.678;12.464;2022-10-30T23:41:40;16.10;99.90
48454;DHT22;34261;55.678;12.464;2022-10-30T23:44:06;16.10;99.90
48454;DHT22;34261;55.678;12.464;2022-10-30T23:46:32;16.10;99.90
48454;DHT22;34261;55.678;12.464;2022-10-30T23:48:58;16.00;99.90
48454;DHT22;34261;55.678;12.464;2022-10-30T23:51:24;16.10;99.90
48454;DHT22;34261;55.678;12.464;2022-10-30T23:53:49;16.00;99.90
48454;DHT22;34261;55.678;12.464;2022-10-30T23:56:15;16.10;99.90
48454;DHT22;34261;55.678;12.464;2022-10-30T23:58:44;16.10;99.90
